sensor_id;sensor_type;location;lat;lon;timestamp;P1;durP1;ratioP1;P2;durP2;ratioP2
64684;SDS011;51109;47.414;18.954;2024-03-08T00:00:51;38.55;;;21.48;;
64684;SDS011;51109;47.414;18.954;2024-03-08T00:03:17;40.67;;;21.92;;
64684;SDS011;51109;47.414;18.954;2024-03-08T00:05:42;39.17;;;21.00;;
64684;SDS011;51109;47.414;18.954;2024-03-08T00:08:08;43.25;;;23.33;;
64684;SDS011;51109;47.414;18.954;2024-03-08T00:10:35;45.20;;;23.50;;
64684;SDS011;51109;47.414;18.954;2024-03-08T00:13:01;44.55;;;24.10;;
64684;SDS011;51109;47.414;18.954;2024-03-08T00:15:29;44.67;;;24.10;;
64684;SDS011;51109;47.414;18.954;2024-03-08T00:17:57;44.65;;;23.65;;
64684;SDS011;51109;47.414;18.954;2024-03-08T00:20:23;48.55;;;24.67;;
64684;SDS011;51109;47.414;18.954;2024-03-08T00:22:49;47.55;;;25.05;;
64684;SDS011;51109;47.414;18.954;2024-03-08T00:25:16;49.40;;;26.05;;
64684;SDS011;51109;47.414;18.954;2024-03-08T00:27:42;48.38;;;24.27;;
64684;SDS011;51109;47.414;18.954;2024-03-08T00:30:08;47.60;;;24.27;;
64684;SDS011;51109;47.414;18.954;2024-03-08T00:32:34;49.22;;;25.25;;
64684;SDS011;51109;47.414;18.954;2024-03-08T00:35:01;50.53;;;25.42;;
64684;SDS011;51109;47.414;18.954;2024-03-08T00:37:27;49.83;;;24.73;;
64684;SDS011;51109;47.414;18.954;2024-03-08T00:39:52;51.63;;;26.02;;
64684;SDS011;51109;47.414;18.954;2024-03-08T00:42:19;46.47;;;25.88;;
64684;SDS011;51109;47.414;18.954;2024-03-08T00:44:45;52.30;;;26.23;;
64684;SDS011;51109;47.414;18.954;2024-03-08T00:47:12;52.72;;;26.08;;
64684;SDS011;51109;47.414;18.954;2024-03-08T00:49:38;56.47;;;27.10;;
64684;SDS011;51109;47.414;18.954;2024-03-08T00:52:06;54.55;;;27.55;;
64684;SDS011;51109;47.414;18.954;2024-03-08T00:54:32;47.63;;;25.95;;
64684;SDS011;51109;47.414;18.954;2024-03-08T00:56:58;46.38;;;26.00;;
64684;SDS011;51109;47.414;18.954;2024-03-08T00:59:28;54.80;;;26.23;;
64684;SDS011;51109;47.414;18.954;2024-03-08T01:01:54;49.47;;;25.77;;
64684;SDS011;51109;47.414;18.954;2024-03-08T01:04:20;52.08;;;26.77;;
64684;SDS011;51109;47.414;18.954;2024-03-08T01:06:48;54.00;;;27.95;;
64684;SDS011;51109;47.414;18.954;2024-03-08T01:09:14;50.63;;;26.42;;
64684;SDS011;51109;47.414;18.954;2024-03-08T01:11:42;51.13;;;26.65;;
64684;SDS011;51109;47.414;18.954;2024-03-08T01:14:09;51.45;;;26.27;;
64684;SDS011;51109;47.414;18.954;2024-03-08T01:16:34;51.95;;;26.85;;
64684;SDS011;51109;47.414;18.954;2024-03-08T01:19:00;57.13;;;27.05;;
64684;SDS011;51109;47.414;18.954;2024-03-08T01:21:27;56.50;;;27.55;;
64684;SDS011;51109;47.414;18.954;2024-03-08T01:23:52;58.47;;;27.65;;
64684;SDS011;51109;47.414;18.954;2024-03-08T01:26:18;56.45;;;26.48;;
64684;SDS011;51109;47.414;18.954;2024-03-08T01:28:44;57.33;;;27.95;;
64684;SDS011;51109;47.414;18.954;2024-03-08T01:31:10;58.00;;;29.55;;
64684;SDS011;51109;47.414;18.954;2024-03-08T01:33:35;63.95;;;27.38;;
64684;SDS011;51109;47.414;18.954;2024-03-08T01:36:01;57.10;;;28.38;;
64684;SDS011;51109;47.414;18.954;2024-03-08T01:38:27;63.17;;;29.13;;
64684;SDS011;51109;47.414;18.954;2024-03-08T01:40:53;56.17;;;27.90;;
64684;SDS011;51109;47.414;18.954;2024-03-08T01:43:24;63.85;;;30.20;;
64684;SDS011;51109;47.414;18.954;2024-03-08T01:45:52;59.90;;;28.77;;
64684;SDS011;51109;47.414;18.954;2024-03-08T01:48:18;65.72;;;32.20;;
64684;SDS011;51109;47.414;18.954;2024-03-08T01:50:47;67.88;;;31.48;;
64684;SDS011;51109;47.414;18.954;2024-03-08T01:53:13;67.65;;;31.00;;
64684;SDS011;51109;47.414;18.954;2024-03-08T01:55:40;68.63;;;32.03;;
64684;SDS011;51109;47.414;18.954;2024-03-08T01:58:07;65.00;;;30.27;;
64684;SDS011;51109;47.414;18.954;2024-03-08T02:00:35;65.80;;;30.98;;
64684;SDS011;51109;47.414;18.954;2024-03-08T02:03:05;73.78;;;33.88;;
64684;SDS011;51109;47.414;18.954;2024-03-08T02:05:31;62.38;;;30.83;;
64684;SDS011;51109;47.414;18.954;2024-03-08T02:07:57;61.65;;;31.52;;
64684;SDS011;51109;47.414;18.954;2024-03-08T02:10:23;62.38;;;31.13;;
64684;SDS011;51109;47.414;18.954;2024-03-08T02:12:49;65.97;;;31.70;;
64684;SDS011;51109;47.414;18.954;2024-03-08T02:15:15;64.00;;;31.15;;
64684;SDS011;51109;47.414;18.954;2024-03-08T02:17:41;64.13;;;31.98;;
64684;SDS011;51109;47.414;18.954;2024-03-08T02:20:07;65.32;;;31.17;;
64684;SDS011;51109;47.414;18.954;2024-03-08T02:22:49;73.65;;;33.88;;
64684;SDS011;51109;47.414;18.954;2024-03-08T02:25:16;65.93;;;32.42;;
64684;SDS011;51109;47.414;18.954;2024-03-08T02:27:42;68.35;;;33.95;;
64684;SDS011;51109;47.414;18.954;2024-03-08T02:32:41;69.97;;;32.85;;
64684;SDS011;51109;47.414;18.954;2024-03-08T02:35:06;76.68;;;33.65;;
64684;SDS011;51109;47.414;18.954;2024-03-08T02:37:32;79.85;;;35.80;;
64684;SDS011;51109;47.414;18.954;2024-03-08T02:39:58;75.00;;;34.10;;
64684;SDS011;51109;47.414;18.954;2024-03-08T02:42:24;74.78;;;35.70;;
64684;SDS011;51109;47.414;18.954;2024-03-08T02:44:49;75.80;;;36.13;;
64684;SDS011;51109;47.414;18.954;2024-03-08T02:47:15;73.55;;;35.38;;
64684;SDS011;51109;47.414;18.954;2024-03-08T02:49:41;66.85;;;33.55;;
64684;SDS011;51109;47.414;18.954;2024-03-08T02:52:07;68.65;;;33.10;;
64684;SDS011;51109;47.414;18.954;2024-03-08T02:54:32;77.43;;;36.15;;
64684;SDS011;51109;47.414;18.954;2024-03-08T02:57:00;78.90;;;38.40;;
64684;SDS011;51109;47.414;18.954;2024-03-08T02:59:26;74.57;;;35.30;;
64684;SDS011;51109;47.414;18.954;2024-03-08T03:01:52;82.78;;;38.40;;
64684;SDS011;51109;47.414;18.954;2024-03-08T03:04:18;88.35;;;38.97;;
64684;SDS011;51109;47.414;18.954;2024-03-08T03:06:43;93.82;;;38.95;;
64684;SDS011;51109;47.414;18.954;2024-03-08T03:09:09;88.72;;;38.45;;
64684;SDS011;51109;47.414;18.954;2024-03-08T03:11:35;100.07;;;39.88;;
64684;SDS011;51109;47.414;18.954;2024-03-08T03:14:02;95.75;;;41.30;;
64684;SDS011;51109;47.414;18.954;2024-03-08T03:16:29;91.38;;;41.47;;
64684;SDS011;51109;47.414;18.954;2024-03-08T03:18:55;98.88;;;41.15;;
64684;SDS011;51109;47.414;18.954;2024-03-08T03:21:22;89.65;;;39.75;;
64684;SDS011;51109;47.414;18.954;2024-03-08T03:23:48;90.88;;;39.50;;
64684;SDS011;51109;47.414;18.954;2024-03-08T03:26:13;88.80;;;39.55;;
64684;SDS011;51109;47.414;18.954;2024-03-08T03:28:42;81.97;;;37.80;;
64684;SDS011;51109;47.414;18.954;2024-03-08T03:31:08;84.97;;;38.38;;
64684;SDS011;51109;47.414;18.954;2024-03-08T03:33:39;87.28;;;38.28;;
64684;SDS011;51109;47.414;18.954;2024-03-08T03:36:05;85.65;;;38.70;;
64684;SDS011;51109;47.414;18.954;2024-03-08T03:38:33;95.88;;;42.08;;
64684;SDS011;51109;47.414;18.954;2024-03-08T03:40:59;92.22;;;40.80;;
64684;SDS011;51109;47.414;18.954;2024-03-08T03:43:31;86.63;;;39.90;;
64684;SDS011;51109;47.414;18.954;2024-03-08T03:45:57;80.22;;;38.67;;
64684;SDS011;51109;47.414;18.954;2024-03-08T03:48:23;93.30;;;39.92;;
64684;SDS011;51109;47.414;18.954;2024-03-08T03:50:49;94.88;;;39.08;;
64684;SDS011;51109;47.414;18.954;2024-03-08T03:53:15;84.72;;;39.58;;
64684;SDS011;51109;47.414;18.954;2024-03-08T03:55:41;81.13;;;38.40;;
64684;SDS011;51109;47.414;18.954;2024-03-08T03:58:08;90.53;;;39.80;;
64684;SDS011;51109;47.414;18.954;2024-03-08T04:00:35;86.90;;;38.78;;
64684;SDS011;51109;47.414;18.954;2024-03-08T04:03:00;87.25;;;39.25;;
64684;SDS011;51109;47.414;18.954;2024-03-08T04:05:26;82.68;;;38.08;;
64684;SDS011;51109;47.414;18.954;2024-03-08T04:07:52;85.30;;;39.97;;
64684;SDS011;51109;47.414;18.954;2024-03-08T04:10:18;80.28;;;37.13;;
64684;SDS011;51109;47.414;18.954;2024-03-08T04:12:45;85.90;;;39.13;;
64684;SDS011;51109;47.414;18.954;2024-03-08T04:15:11;83.68;;;39.13;;
64684;SDS011;51109;47.414;18.954;2024-03-08T04:17:36;87.95;;;37.83;;
64684;SDS011;51109;47.414;18.954;2024-03-08T04:20:05;80.65;;;37.13;;
64684;SDS011;51109;47.414;18.954;2024-03-08T04:22:40;83.68;;;38.75;;
64684;SDS011;51109;47.414;18.954;2024-03-08T04:25:06;88.05;;;39.70;;
64684;SDS011;51109;47.414;18.954;2024-03-08T04:27:32;86.57;;;39.63;;
64684;SDS011;51109;47.414;18.954;2024-03-08T04:29:59;89.55;;;39.08;;
64684;SDS011;51109;47.414;18.954;2024-03-08T04:32:25;93.20;;;39.78;;
64684;SDS011;51109;47.414;18.954;2024-03-08T04:34:51;89.70;;;38.90;;
64684;SDS011;51109;47.414;18.954;2024-03-08T04:37:17;90.90;;;39.38;;
64684;SDS011;51109;47.414;18.954;2024-03-08T04:39:47;87.90;;;40.33;;
64684;SDS011;51109;47.414;18.954;2024-03-08T04:42:13;90.75;;;40.72;;
64684;SDS011;51109;47.414;18.954;2024-03-08T04:44:39;97.38;;;39.88;;
64684;SDS011;51109;47.414;18.954;2024-03-08T04:47:05;90.10;;;41.15;;
64684;SDS011;51109;47.414;18.954;2024-03-08T04:49:34;93.00;;;40.33;;
64684;SDS011;51109;47.414;18.954;2024-03-08T04:52:03;92.35;;;39.38;;
64684;SDS011;51109;47.414;18.954;2024-03-08T04:54:30;91.90;;;39.28;;
64684;SDS011;51109;47.414;18.954;2024-03-08T04:56:56;88.03;;;40.03;;
64684;SDS011;51109;47.414;18.954;2024-03-08T04:59:22;83.63;;;38.63;;
64684;SDS011;51109;47.414;18.954;2024-03-08T05:01:49;80.97;;;38.42;;
64684;SDS011;51109;47.414;18.954;2024-03-08T05:04:14;85.35;;;38.75;;
64684;SDS011;51109;47.414;18.954;2024-03-08T05:06:40;87.18;;;38.60;;
64684;SDS011;51109;47.414;18.954;2024-03-08T05:09:06;92.22;;;41.22;;
64684;SDS011;51109;47.414;18.954;2024-03-08T05:11:44;84.18;;;38.40;;
64684;SDS011;51109;47.414;18.954;2024-03-08T05:14:11;82.32;;;37.75;;
64684;SDS011;51109;47.414;18.954;2024-03-08T05:16:44;87.30;;;40.60;;
64684;SDS011;51109;47.414;18.954;2024-03-08T05:19:17;95.28;;;39.88;;
64684;SDS011;51109;47.414;18.954;2024-03-08T05:21:44;92.78;;;40.45;;
64684;SDS011;51109;47.414;18.954;2024-03-08T05:24:13;91.75;;;40.38;;
64684;SDS011;51109;47.414;18.954;2024-03-08T05:26:40;90.35;;;38.58;;
64684;SDS011;51109;47.414;18.954;2024-03-08T05:29:07;85.63;;;39.13;;
64684;SDS011;51109;47.414;18.954;2024-03-08T05:31:47;89.97;;;39.03;;
64684;SDS011;51109;47.414;18.954;2024-03-08T05:34:15;89.53;;;39.33;;
64684;SDS011;51109;47.414;18.954;2024-03-08T05:36:41;96.57;;;39.17;;
64684;SDS011;51109;47.414;18.954;2024-03-08T05:39:10;97.53;;;43.30;;
64684;SDS011;51109;47.414;18.954;2024-03-08T05:41:37;101.43;;;43.45;;
64684;SDS011;51109;47.414;18.954;2024-03-08T05:44:04;91.95;;;39.92;;
64684;SDS011;51109;47.414;18.954;2024-03-08T05:46:30;96.30;;;40.50;;
64684;SDS011;51109;47.414;18.954;2024-03-08T05:48:56;93.30;;;40.47;;
64684;SDS011;51109;47.414;18.954;2024-03-08T05:51:25;102.32;;;43.28;;
64684;SDS011;51109;47.414;18.954;2024-03-08T05:53:54;95.13;;;40.80;;
64684;SDS011;51109;47.414;18.954;2024-03-08T05:56:21;97.43;;;42.72;;
64684;SDS011;51109;47.414;18.954;2024-03-08T05:58:48;91.45;;;42.53;;
64684;SDS011;51109;47.414;18.954;2024-03-08T06:01:15;95.63;;;40.22;;
64684;SDS011;51109;47.414;18.954;2024-03-08T06:03:41;99.20;;;41.83;;
64684;SDS011;51109;47.414;18.954;2024-03-08T06:06:13;92.50;;;41.88;;
64684;SDS011;51109;47.414;18.954;2024-03-08T06:08:40;93.72;;;40.25;;
64684;SDS011;51109;47.414;18.954;2024-03-08T06:11:08;99.57;;;43.95;;
64684;SDS011;51109;47.414;18.954;2024-03-08T06:13:34;100.85;;;40.63;;
64684;SDS011;51109;47.414;18.954;2024-03-08T06:16:01;93.70;;;41.47;;
64684;SDS011;51109;47.414;18.954;2024-03-08T06:18:30;100.82;;;40.88;;
64684;SDS011;51109;47.414;18.954;2024-03-08T06:20:56;90.60;;;39.65;;
64684;SDS011;51109;47.414;18.954;2024-03-08T06:23:22;96.88;;;42.47;;
64684;SDS011;51109;47.414;18.954;2024-03-08T06:25:48;101.32;;;42.17;;
64684;SDS011;51109;47.414;18.954;2024-03-08T06:28:14;102.88;;;42.25;;
64684;SDS011;51109;47.414;18.954;2024-03-08T06:30:40;97.72;;;43.38;;
64684;SDS011;51109;47.414;18.954;2024-03-08T06:33:06;107.95;;;43.17;;
64684;SDS011;51109;47.414;18.954;2024-03-08T06:35:35;102.35;;;42.70;;
64684;SDS011;51109;47.414;18.954;2024-03-08T06:38:03;97.80;;;41.42;;
64684;SDS011;51109;47.414;18.954;2024-03-08T06:40:29;90.53;;;41.20;;
64684;SDS011;51109;47.414;18.954;2024-03-08T06:42:55;100.55;;;44.83;;
64684;SDS011;51109;47.414;18.954;2024-03-08T06:45:21;92.70;;;42.30;;
64684;SDS011;51109;47.414;18.954;2024-03-08T06:47:48;98.53;;;42.25;;
64684;SDS011;51109;47.414;18.954;2024-03-08T06:50:15;102.15;;;43.22;;
64684;SDS011;51109;47.414;18.954;2024-03-08T06:52:41;95.30;;;41.58;;
64684;SDS011;51109;47.414;18.954;2024-03-08T06:55:11;97.90;;;41.50;;
64684;SDS011;51109;47.414;18.954;2024-03-08T06:57:40;101.30;;;46.05;;
64684;SDS011;51109;47.414;18.954;2024-03-08T07:00:09;98.90;;;42.33;;
64684;SDS011;51109;47.414;18.954;2024-03-08T07:02:37;90.80;;;40.95;;
64684;SDS011;51109;47.414;18.954;2024-03-08T07:05:04;95.13;;;40.90;;
64684;SDS011;51109;47.414;18.954;2024-03-08T07:07:31;91.88;;;41.08;;
64684;SDS011;51109;47.414;18.954;2024-03-08T07:09:59;98.35;;;42.22;;
64684;SDS011;51109;47.414;18.954;2024-03-08T07:12:24;91.97;;;41.17;;
64684;SDS011;51109;47.414;18.954;2024-03-08T07:14:51;95.35;;;42.35;;
64684;SDS011;51109;47.414;18.954;2024-03-08T07:17:17;89.75;;;41.60;;
64684;SDS011;51109;47.414;18.954;2024-03-08T07:19:42;98.10;;;42.22;;
64684;SDS011;51109;47.414;18.954;2024-03-08T07:22:08;93.22;;;41.58;;
64684;SDS011;51109;47.414;18.954;2024-03-08T07:24:35;96.70;;;42.17;;
64684;SDS011;51109;47.414;18.954;2024-03-08T07:27:20;97.60;;;41.88;;
64684;SDS011;51109;47.414;18.954;2024-03-08T07:29:45;96.60;;;42.17;;
64684;SDS011;51109;47.414;18.954;2024-03-08T07:32:11;103.75;;;43.55;;
64684;SDS011;51109;47.414;18.954;2024-03-08T07:34:44;105.63;;;44.08;;
64684;SDS011;51109;47.414;18.954;2024-03-08T07:37:10;98.55;;;41.13;;
64684;SDS011;51109;47.414;18.954;2024-03-08T07:39:36;104.60;;;42.90;;
64684;SDS011;51109;47.414;18.954;2024-03-08T07:42:05;107.35;;;44.30;;
64684;SDS011;51109;47.414;18.954;2024-03-08T07:44:31;101.53;;;44.80;;
64684;SDS011;51109;47.414;18.954;2024-03-08T07:46:58;109.75;;;43.25;;
64684;SDS011;51109;47.414;18.954;2024-03-08T07:49:24;104.82;;;43.03;;
64684;SDS011;51109;47.414;18.954;2024-03-08T07:51:50;101.95;;;43.28;;
64684;SDS011;51109;47.414;18.954;2024-03-08T07:54:17;107.95;;;44.25;;
64684;SDS011;51109;47.414;18.954;2024-03-08T07:56:43;110.13;;;42.97;;
64684;SDS011;51109;47.414;18.954;2024-03-08T07:59:08;112.38;;;45.50;;
64684;SDS011;51109;47.414;18.954;2024-03-08T08:01:37;108.38;;;43.08;;
64684;SDS011;51109;47.414;18.954;2024-03-08T08:04:03;107.38;;;45.70;;
64684;SDS011;51109;47.414;18.954;2024-03-08T08:06:29;103.13;;;43.53;;
64684;SDS011;51109;47.414;18.954;2024-03-08T08:08:58;112.88;;;46.53;;
64684;SDS011;51109;47.414;18.954;2024-03-08T08:11:27;122.32;;;47.50;;
64684;SDS011;51109;47.414;18.954;2024-03-08T08:13:54;117.30;;;48.13;;
64684;SDS011;51109;47.414;18.954;2024-03-08T08:16:20;111.63;;;46.17;;
64684;SDS011;51109;47.414;18.954;2024-03-08T08:18:48;120.63;;;45.70;;
64684;SDS011;51109;47.414;18.954;2024-03-08T08:21:14;107.53;;;43.67;;
64684;SDS011;51109;47.414;18.954;2024-03-08T08:23:39;119.07;;;45.60;;
64684;SDS011;51109;47.414;18.954;2024-03-08T08:26:05;119.90;;;46.75;;
64684;SDS011;51109;47.414;18.954;2024-03-08T08:28:33;121.25;;;46.75;;
64684;SDS011;51109;47.414;18.954;2024-03-08T08:30:58;120.00;;;46.65;;
64684;SDS011;51109;47.414;18.954;2024-03-08T08:33:25;134.00;;;50.40;;
64684;SDS011;51109;47.414;18.954;2024-03-08T08:35:51;124.30;;;47.30;;
64684;SDS011;51109;47.414;18.954;2024-03-08T08:38:19;116.18;;;45.55;;
64684;SDS011;51109;47.414;18.954;2024-03-08T08:40:45;120.45;;;47.38;;
64684;SDS011;51109;47.414;18.954;2024-03-08T08:43:12;132.70;;;47.65;;
64684;SDS011;51109;47.414;18.954;2024-03-08T08:45:39;122.82;;;48.08;;
64684;SDS011;51109;47.414;18.954;2024-03-08T08:48:05;120.78;;;48.50;;
64684;SDS011;51109;47.414;18.954;2024-03-08T08:50:31;124.97;;;46.70;;
64684;SDS011;51109;47.414;18.954;2024-03-08T08:52:57;113.70;;;47.88;;
64684;SDS011;51109;47.414;18.954;2024-03-08T08:55:23;115.50;;;46.72;;
64684;SDS011;51109;47.414;18.954;2024-03-08T08:57:52;107.95;;;46.95;;
64684;SDS011;51109;47.414;18.954;2024-03-08T09:00:21;120.45;;;47.50;;
64684;SDS011;51109;47.414;18.954;2024-03-08T09:02:52;125.50;;;47.80;;
64684;SDS011;51109;47.414;18.954;2024-03-08T09:05:20;111.65;;;42.47;;
64684;SDS011;51109;47.414;18.954;2024-03-08T09:07:46;113.78;;;46.25;;
64684;SDS011;51109;47.414;18.954;2024-03-08T09:10:12;109.20;;;45.13;;
64684;SDS011;51109;47.414;18.954;2024-03-08T09:12:39;107.07;;;45.00;;
64684;SDS011;51109;47.414;18.954;2024-03-08T09:15:05;104.28;;;43.92;;
64684;SDS011;51109;47.414;18.954;2024-03-08T09:17:36;103.10;;;43.92;;
64684;SDS011;51109;47.414;18.954;2024-03-08T09:20:07;104.32;;;44.53;;
64684;SDS011;51109;47.414;18.954;2024-03-08T09:22:35;104.85;;;44.63;;
64684;SDS011;51109;47.414;18.954;2024-03-08T09:25:01;105.63;;;42.97;;
64684;SDS011;51109;47.414;18.954;2024-03-08T09:27:27;103.00;;;46.05;;
64684;SDS011;51109;47.414;18.954;2024-03-08T09:29:54;106.43;;;43.95;;
64684;SDS011;51109;47.414;18.954;2024-03-08T09:32:20;107.35;;;42.00;;
64684;SDS011;51109;47.414;18.954;2024-03-08T09:34:48;102.18;;;44.28;;
64684;SDS011;51109;47.414;18.954;2024-03-08T09:37:13;101.40;;;42.10;;
64684;SDS011;51109;47.414;18.954;2024-03-08T09:39:39;104.25;;;43.33;;
64684;SDS011;51109;47.414;18.954;2024-03-08T09:42:05;105.63;;;42.58;;
64684;SDS011;51109;47.414;18.954;2024-03-08T09:44:31;113.35;;;43.35;;
64684;SDS011;51109;47.414;18.954;2024-03-08T09:46:57;96.10;;;43.95;;
64684;SDS011;51109;47.414;18.954;2024-03-08T09:49:24;101.15;;;43.78;;
64684;SDS011;51109;47.414;18.954;2024-03-08T09:51:50;100.53;;;43.50;;
64684;SDS011;51109;47.414;18.954;2024-03-08T09:54:16;93.10;;;42.25;;
64684;SDS011;51109;47.414;18.954;2024-03-08T09:56:45;101.55;;;43.50;;
64684;SDS011;51109;47.414;18.954;2024-03-08T09:59:12;98.05;;;43.63;;
64684;SDS011;51109;47.414;18.954;2024-03-08T10:01:53;87.20;;;41.58;;
64684;SDS011;51109;47.414;18.954;2024-03-08T10:04:24;100.97;;;42.70;;
64684;SDS011;51109;47.414;18.954;2024-03-08T10:06:51;93.93;;;42.20;;
64684;SDS011;51109;47.414;18.954;2024-03-08T10:09:17;101.68;;;43.97;;
64684;SDS011;51109;47.414;18.954;2024-03-08T10:11:43;99.97;;;41.67;;
64684;SDS011;51109;47.414;18.954;2024-03-08T10:14:10;95.38;;;42.78;;
64684;SDS011;51109;47.414;18.954;2024-03-08T10:16:37;90.53;;;40.90;;
64684;SDS011;51109;47.414;18.954;2024-03-08T10:19:06;102.32;;;41.33;;
64684;SDS011;51109;47.414;18.954;2024-03-08T10:21:33;101.93;;;41.67;;
64684;SDS011;51109;47.414;18.954;2024-03-08T10:23:59;89.00;;;42.03;;
64684;SDS011;51109;47.414;18.954;2024-03-08T10:26:24;96.75;;;43.47;;
64684;SDS011;51109;47.414;18.954;2024-03-08T10:28:51;93.63;;;41.88;;
64684;SDS011;51109;47.414;18.954;2024-03-08T10:31:20;93.63;;;42.80;;
64684;SDS011;51109;47.414;18.954;2024-03-08T10:33:46;96.82;;;41.03;;
64684;SDS011;51109;47.414;18.954;2024-03-08T10:36:13;87.30;;;39.55;;
64684;SDS011;51109;47.414;18.954;2024-03-08T10:38:40;89.68;;;39.05;;
64684;SDS011;51109;47.414;18.954;2024-03-08T10:41:12;84.55;;;38.13;;
64684;SDS011;51109;47.414;18.954;2024-03-08T10:46:51;80.68;;;38.72;;
64684;SDS011;51109;47.414;18.954;2024-03-08T10:52:16;88.65;;;38.75;;
64684;SDS011;51109;47.414;18.954;2024-03-08T10:54:43;90.68;;;39.83;;
64684;SDS011;51109;47.414;18.954;2024-03-08T10:57:12;85.38;;;40.17;;
64684;SDS011;51109;47.414;18.954;2024-03-08T10:59:39;82.45;;;38.00;;
64684;SDS011;51109;47.414;18.954;2024-03-08T11:02:05;85.50;;;39.10;;
64684;SDS011;51109;47.414;18.954;2024-03-08T11:04:31;78.75;;;39.28;;
64684;SDS011;51109;47.414;18.954;2024-03-08T11:07:01;76.30;;;37.75;;
64684;SDS011;51109;47.414;18.954;2024-03-08T11:14:49;81.10;;;39.17;;
64684;SDS011;51109;47.414;18.954;2024-03-08T11:17:26;90.47;;;41.22;;
64684;SDS011;51109;47.414;18.954;2024-03-08T11:20:13;81.93;;;37.90;;
64684;SDS011;51109;47.414;18.954;2024-03-08T11:23:00;78.05;;;38.38;;
64684;SDS011;51109;47.414;18.954;2024-03-08T11:28:12;75.00;;;36.00;;
64684;SDS011;51109;47.414;18.954;2024-03-08T11:30:43;67.85;;;35.63;;
64684;SDS011;51109;47.414;18.954;2024-03-08T11:33:12;69.15;;;34.70;;
64684;SDS011;51109;47.414;18.954;2024-03-08T11:35:40;70.28;;;34.88;;
64684;SDS011;51109;47.414;18.954;2024-03-08T11:38:10;72.28;;;36.13;;
64684;SDS011;51109;47.414;18.954;2024-03-08T11:40:35;71.75;;;36.13;;
64684;SDS011;51109;47.414;18.954;2024-03-08T11:43:01;70.68;;;36.35;;
64684;SDS011;51109;47.414;18.954;2024-03-08T11:45:33;66.65;;;32.28;;
64684;SDS011;51109;47.414;18.954;2024-03-08T11:48:04;65.63;;;30.50;;
64684;SDS011;51109;47.414;18.954;2024-03-08T11:50:30;53.92;;;30.77;;
64684;SDS011;51109;47.414;18.954;2024-03-08T11:53:01;56.58;;;31.23;;
64684;SDS011;51109;47.414;18.954;2024-03-08T11:55:33;54.72;;;30.10;;
64684;SDS011;51109;47.414;18.954;2024-03-08T11:58:04;56.75;;;30.92;;
64684;SDS011;51109;47.414;18.954;2024-03-08T12:00:33;55.33;;;31.13;;
64684;SDS011;51109;47.414;18.954;2024-03-08T12:03:06;54.33;;;29.98;;
64684;SDS011;51109;47.414;18.954;2024-03-08T12:05:35;51.78;;;29.17;;
64684;SDS011;51109;47.414;18.954;2024-03-08T12:08:04;49.15;;;28.00;;
64684;SDS011;51109;47.414;18.954;2024-03-08T12:10:32;46.30;;;26.85;;
64684;SDS011;51109;47.414;18.954;2024-03-08T12:13:00;41.95;;;24.42;;
64684;SDS011;51109;47.414;18.954;2024-03-08T12:15:26;44.33;;;25.30;;
64684;SDS011;51109;47.414;18.954;2024-03-08T12:17:54;46.20;;;25.30;;
64684;SDS011;51109;47.414;18.954;2024-03-08T12:20:22;47.20;;;27.40;;
64684;SDS011;51109;47.414;18.954;2024-03-08T12:22:52;48.28;;;28.10;;
64684;SDS011;51109;47.414;18.954;2024-03-08T12:25:19;45.78;;;26.02;;
64684;SDS011;51109;47.414;18.954;2024-03-08T12:27:45;45.08;;;27.08;;
64684;SDS011;51109;47.414;18.954;2024-03-08T12:30:18;44.25;;;25.08;;
64684;SDS011;51109;47.414;18.954;2024-03-08T12:35:25;44.80;;;25.67;;
64684;SDS011;51109;47.414;18.954;2024-03-08T12:37:52;44.53;;;25.98;;
64684;SDS011;51109;47.414;18.954;2024-03-08T12:40:19;44.95;;;26.42;;
64684;SDS011;51109;47.414;18.954;2024-03-08T12:42:52;46.50;;;26.63;;
64684;SDS011;51109;47.414;18.954;2024-03-08T12:45:18;40.15;;;24.05;;
64684;SDS011;51109;47.414;18.954;2024-03-08T12:47:44;39.50;;;23.98;;
64684;SDS011;51109;47.414;18.954;2024-03-08T12:50:10;37.95;;;23.10;;
64684;SDS011;51109;47.414;18.954;2024-03-08T12:52:36;39.85;;;24.23;;
64684;SDS011;51109;47.414;18.954;2024-03-08T12:55:02;39.50;;;23.77;;
64684;SDS011;51109;47.414;18.954;2024-03-08T12:57:28;39.58;;;24.25;;
64684;SDS011;51109;47.414;18.954;2024-03-08T12:59:54;43.90;;;23.83;;
64684;SDS011;51109;47.414;18.954;2024-03-08T13:02:20;38.10;;;22.92;;
64684;SDS011;51109;47.414;18.954;2024-03-08T13:04:46;40.08;;;23.83;;
64684;SDS011;51109;47.414;18.954;2024-03-08T13:07:21;37.45;;;24.42;;
64684;SDS011;51109;47.414;18.954;2024-03-08T13:09:48;32.70;;;22.67;;
64684;SDS011;51109;47.414;18.954;2024-03-08T13:12:14;32.13;;;21.30;;
64684;SDS011;51109;47.414;18.954;2024-03-08T13:14:40;29.42;;;20.38;;
64684;SDS011;51109;47.414;18.954;2024-03-08T13:17:06;28.33;;;20.20;;
64684;SDS011;51109;47.414;18.954;2024-03-08T13:19:36;26.92;;;18.92;;
64684;SDS011;51109;47.414;18.954;2024-03-08T13:22:03;28.38;;;20.92;;
64684;SDS011;51109;47.414;18.954;2024-03-08T13:24:30;29.27;;;20.30;;
64684;SDS011;51109;47.414;18.954;2024-03-08T13:26:56;31.67;;;20.58;;
64684;SDS011;51109;47.414;18.954;2024-03-08T13:29:23;29.58;;;20.25;;
64684;SDS011;51109;47.414;18.954;2024-03-08T13:31:49;24.23;;;17.65;;
64684;SDS011;51109;47.414;18.954;2024-03-08T13:34:17;26.23;;;17.75;;
64684;SDS011;51109;47.414;18.954;2024-03-08T13:36:43;29.45;;;19.90;;
64684;SDS011;51109;47.414;18.954;2024-03-08T13:39:10;24.65;;;18.40;;
64684;SDS011;51109;47.414;18.954;2024-03-08T13:41:43;24.35;;;18.08;;
64684;SDS011;51109;47.414;18.954;2024-03-08T13:44:10;28.25;;;19.55;;
64684;SDS011;51109;47.414;18.954;2024-03-08T13:46:36;26.35;;;17.73;;
64684;SDS011;51109;47.414;18.954;2024-03-08T13:49:05;27.52;;;17.85;;
64684;SDS011;51109;47.414;18.954;2024-03-08T13:51:33;27.83;;;18.05;;
64684;SDS011;51109;47.414;18.954;2024-03-08T13:53:59;24.67;;;18.00;;
64684;SDS011;51109;47.414;18.954;2024-03-08T13:56:26;26.52;;;17.77;;
64684;SDS011;51109;47.414;18.954;2024-03-08T13:58:57;31.77;;;18.67;;
64684;SDS011;51109;47.414;18.954;2024-03-08T14:01:23;28.45;;;18.08;;
64684;SDS011;51109;47.414;18.954;2024-03-08T14:03:50;27.75;;;19.38;;
64684;SDS011;51109;47.414;18.954;2024-03-08T14:06:16;28.33;;;18.48;;
64684;SDS011;51109;47.414;18.954;2024-03-08T14:08:41;34.90;;;19.70;;
64684;SDS011;51109;47.414;18.954;2024-03-08T14:11:07;32.40;;;20.63;;
64684;SDS011;51109;47.414;18.954;2024-03-08T14:13:43;27.05;;;17.63;;
64684;SDS011;51109;47.414;18.954;2024-03-08T14:16:13;26.08;;;17.65;;
64684;SDS011;51109;47.414;18.954;2024-03-08T14:18:39;25.13;;;16.95;;
64684;SDS011;51109;47.414;18.954;2024-03-08T14:21:05;26.73;;;17.63;;
64684;SDS011;51109;47.414;18.954;2024-03-08T14:23:33;24.98;;;17.05;;
64684;SDS011;51109;47.414;18.954;2024-03-08T14:25:59;25.23;;;16.65;;